createdAt,value
2022-10-31T00:00:33.352Z,40.47
2022-10-31T00:01:25.599Z,40.47
2022-10-31T00:02:15.752Z,40.20
2022-10-31T00:03:05.390Z,40.42
2022-10-31T00:03:54.610Z,40.21
2022-10-31T00:04:50.852Z,40.32
2022-10-31T00:05:41.519Z,40.61
2022-10-31T00:06:31.886Z,40.56
2022-10-31T00:07:24.449Z,40.26
2022-10-31T00:08:15.866Z,40.43
2022-10-31T00:09:07.977Z,40.35
2022-10-31T00:10:06.702Z,40.19
2022-10-31T00:10:57.509Z,40.10
2022-10-31T00:11:47.205Z,40.59
2022-10-31T00:12:38.006Z,40.77
2022-10-31T00:13:28.725Z,40.20
2022-10-31T00:14:19.594Z,40.06
2022-10-31T00:15:16.334Z,40.06
2022-10-31T00:16:07.290Z,40.08
2022-10-31T00:16:57.465Z,39.95
2022-10-31T00:17:48.163Z,39.95
2022-10-31T00:18:39.952Z,40.32
2022-10-31T00:19:32.177Z,40.34
2022-10-31T00:20:26.417Z,40.53
2022-10-31T00:21:16.865Z,40.55
2022-10-31T00:22:07.158Z,40.49
2022-10-31T00:22:58.234Z,40.10
2022-10-31T00:23:48.258Z,40.39
2022-10-31T00:24:44.578Z,40.38
2022-10-31T00:26:51.564Z,40.43
2022-10-31T00:27:42.338Z,40.53
2022-10-31T00:28:31.999Z,40.27
2022-10-31T00:29:22.707Z,40.55
2022-10-31T00:30:11.460Z,40.08
2022-10-31T00:31:05.401Z,40.34
2022-10-31T00:31:55.312Z,40.06
2022-10-31T00:32:44.670Z,40.20
2022-10-31T00:33:34.764Z,40.39
2022-10-31T00:34:23.646Z,40.60
2022-10-31T00:35:13.999Z,40.52
2022-10-31T00:36:08.262Z,40.35
2022-10-31T00:36:58.603Z,40.58
2022-10-31T00:37:49.667Z,40.42
2022-10-31T00:38:40.927Z,40.38
2022-10-31T00:39:33.419Z,40.13
2022-10-31T00:40:24.600Z,39.65
2022-10-31T00:41:15.022Z,39.16
2022-10-31T00:42:05.916Z,39.73
2022-10-31T00:42:55.052Z,38.95
2022-10-31T00:43:46.378Z,38.78
2022-10-31T00:44:41.649Z,38.17
2022-10-31T00:45:37.944Z,38.24
2022-10-31T00:46:47.514Z,39.05
2022-10-31T00:47:38.010Z,38.20
2022-10-31T00:48:28.047Z,38.57
2022-10-31T00:49:19.986Z,38.68
2022-10-31T00:50:08.723Z,38.32
2022-10-31T00:50:58.270Z,38.70
2022-10-31T00:51:47.812Z,38.61
2022-10-31T00:52:36.485Z,38.76
2022-10-31T00:53:27.045Z,38.22
2022-10-31T00:54:19.581Z,38.62
2022-10-31T00:55:08.678Z,38.23
2022-10-31T00:55:58.773Z,38.50
2022-10-31T00:56:48.658Z,38.46
2022-10-31T00:58:45.114Z,38.26
2022-10-31T00:59:38.407Z,38.62
2022-10-31T01:00:28.375Z,38.58
2022-10-31T01:01:16.562Z,38.37
2022-10-31T01:02:07.193Z,38.67
2022-10-31T01:02:57.705Z,38.54
2022-10-31T01:03:46.864Z,38.86
2022-10-31T01:04:42.011Z,38.78
2022-10-31T01:05:33.882Z,38.40
2022-10-31T01:06:22.854Z,38.50
2022-10-31T01:07:11.651Z,38.83
2022-10-31T01:07:59.430Z,38.61
2022-10-31T01:08:51.814Z,38.27
2022-10-31T01:09:46.978Z,38.62
2022-10-31T01:10:36.332Z,38.67
2022-10-31T01:11:27.974Z,38.49
2022-10-31T01:12:17.377Z,38.59
2022-10-31T01:13:06.391Z,38.35
2022-10-31T01:13:56.295Z,38.71
2022-10-31T01:14:49.604Z,38.60
2022-10-31T01:15:42.748Z,38.49
2022-10-31T01:16:33.920Z,38.63
2022-10-31T01:17:23.498Z,38.69
2022-10-31T01:18:14.833Z,38.46
2022-10-31T01:19:04.321Z,38.78
2022-10-31T01:19:58.989Z,38.56
2022-10-31T01:20:49.464Z,38.76
2022-10-31T01:21:39.637Z,38.71
2022-10-31T01:22:29.734Z,38.80
2022-10-31T01:23:20.086Z,38.65
2022-10-31T01:24:10.043Z,38.87
2022-10-31T01:25:03.992Z,38.49
2022-10-31T01:25:56.647Z,38.55
2022-10-31T01:26:49.032Z,38.48
2022-10-31T01:27:39.179Z,38.69
2022-10-31T01:28:29.627Z,38.67
2022-10-31T01:29:17.592Z,38.62
2022-10-31T01:30:10.620Z,38.65
2022-10-31T01:30:59.675Z,38.64
2022-10-31T01:31:59.067Z,38.54
2022-10-31T01:32:51.131Z,38.62
2022-10-31T01:33:45.370Z,38.74
2022-10-31T01:34:36.309Z,38.95
2022-10-31T01:35:37.433Z,38.47
2022-10-31T01:36:29.328Z,38.54
2022-10-31T01:37:20.959Z,38.62
2022-10-31T01:38:15.639Z,38.68
2022-10-31T01:39:08.825Z,38.75
2022-10-31T01:40:05.584Z,38.59
2022-10-31T01:40:56.478Z,38.83
2022-10-31T01:41:45.759Z,38.47
2022-10-31T01:42:35.079Z,38.50
2022-10-31T01:43:25.497Z,38.82
2022-10-31T01:44:32.623Z,38.46
2022-10-31T01:46:29.191Z,38.58
2022-10-31T01:47:24.329Z,38.41
2022-10-31T01:48:16.921Z,38.71
2022-10-31T01:49:10.453Z,38.79
2022-10-31T01:50:14.030Z,38.70
2022-10-31T01:51:10.893Z,38.61
2022-10-31T01:52:00.986Z,38.79
2022-10-31T01:52:43.227Z,38.51
2022-10-31T01:53:35.624Z,38.50
2022-10-31T01:54:28.906Z,38.73
2022-10-31T01:55:29.957Z,38.32
2022-10-31T01:56:20.108Z,38.34
2022-10-31T01:57:11.553Z,38.42
2022-10-31T01:58:03.853Z,38.43
2022-10-31T01:58:56.165Z,38.38
2022-10-31T01:59:47.980Z,38.46
2022-10-31T02:00:47.072Z,38.42
2022-10-31T02:01:41.111Z,38.40
2022-10-31T02:02:33.930Z,38.49
2022-10-31T02:03:27.275Z,38.44
2022-10-31T02:04:20.201Z,38.61
2022-10-31T02:05:11.529Z,38.38
2022-10-31T02:07:10.498Z,38.38
2022-10-31T02:08:06.963Z,38.14
2022-10-31T02:08:58.443Z,38.55
2022-10-31T02:09:51.071Z,38.42
2022-10-31T02:10:47.674Z,38.36
2022-10-31T02:11:44.650Z,38.55
2022-10-31T02:12:37.398Z,38.57
2022-10-31T02:13:31.023Z,38.43
2022-10-31T02:14:24.563Z,38.51
2022-10-31T02:15:18.369Z,38.41
2022-10-31T02:16:09.760Z,38.63
2022-10-31T02:18:06.760Z,38.35
2022-10-31T02:18:59.267Z,38.43
2022-10-31T02:19:51.226Z,38.44
2022-10-31T02:20:42.291Z,38.55
2022-10-31T02:21:49.486Z,38.38
2022-10-31T02:22:43.206Z,38.22
2022-10-31T02:23:50.426Z,38.55
2022-10-31T02:24:31.765Z,38.32
2022-10-31T02:25:29.827Z,38.57
2022-10-31T02:26:11.949Z,38.52
2022-10-31T02:27:36.463Z,38.57
2022-10-31T02:28:41.599Z,38.33
2022-10-31T02:29:46.980Z,38.49
2022-10-31T02:30:40.919Z,38.54
2022-10-31T02:31:21.866Z,38.51
2022-10-31T02:32:16.739Z,38.94
2022-10-31T02:33:11.493Z,38.64
2022-10-31T02:34:06.784Z,38.61
2022-10-31T02:34:51.929Z,38.25
2022-10-31T02:35:34.245Z,38.47
2022-10-31T02:36:36.489Z,38.51
2022-10-31T02:37:32.191Z,38.40
2022-10-31T02:38:16.956Z,38.32
2022-10-31T02:39:17.344Z,38.51
2022-10-31T02:40:12.657Z,38.49
2022-10-31T02:41:15.850Z,38.39
2022-10-31T02:42:14.197Z,38.58
2022-10-31T02:44:10.212Z,38.33
2022-10-31T02:45:04.716Z,38.61
2022-10-31T02:45:56.588Z,38.40
2022-10-31T02:47:06.659Z,38.64
2022-10-31T02:48:08.760Z,38.32
2022-10-31T02:49:03.988Z,38.43
2022-10-31T02:49:49.354Z,38.11
2022-10-31T02:51:43.457Z,38.43
2022-10-31T02:52:42.217Z,38.45
2022-10-31T02:53:37.838Z,38.46
2022-10-31T02:54:30.672Z,38.19
2022-10-31T02:55:39.822Z,38.39
2022-10-31T02:56:31.716Z,38.62
2022-10-31T02:57:21.185Z,38.28
2022-10-31T02:58:14.231Z,38.41
2022-10-31T02:59:09.528Z,38.33
2022-10-31T03:00:03.582Z,38.43
2022-10-31T03:01:01.709Z,38.37
2022-10-31T03:02:07.238Z,38.50
2022-10-31T03:03:02.591Z,38.54
2022-10-31T03:04:03.114Z,38.50
2022-10-31T03:05:07.057Z,38.56
2022-10-31T03:05:52.200Z,38.33
2022-10-31T03:06:50.074Z,38.59
2022-10-31T03:07:34.270Z,38.30
2022-10-31T03:08:38.510Z,38.56
2022-10-31T03:09:44.902Z,38.63
2022-10-31T03:10:39.315Z,38.43
2022-10-31T03:11:33.437Z,38.45
2022-10-31T03:12:43.183Z,38.60
2022-10-31T03:13:27.567Z,38.51
2022-10-31T03:14:21.554Z,38.35
2022-10-31T03:15:13.144Z,38.38
2022-10-31T03:16:06.397Z,38.42
2022-10-31T03:17:15.491Z,38.40
2022-10-31T03:17:56.826Z,38.71
2022-10-31T03:18:50.553Z,38.35
2022-10-31T03:19:41.449Z,38.30
2022-10-31T03:20:33.360Z,38.32
2022-10-31T03:21:30.123Z,38.37
2022-10-31T03:22:29.130Z,38.37
2022-10-31T03:23:22.950Z,38.30
2022-10-31T03:24:16.028Z,38.25
2022-10-31T03:25:08.605Z,38.16
2022-10-31T03:26:01.454Z,38.10
2022-10-31T03:26:53.339Z,38.17
2022-10-31T03:27:52.048Z,38.09
2022-10-31T03:28:42.519Z,38.11
2022-10-31T03:29:32.277Z,38.31
2022-10-31T03:30:23.529Z,38.02
2022-10-31T03:31:17.152Z,38.04
2022-10-31T03:32:09.773Z,38.14
2022-10-31T03:33:03.502Z,38.07
2022-10-31T03:33:54.036Z,38.25
2022-10-31T03:34:47.988Z,38.22
2022-10-31T03:35:40.949Z,38.25
2022-10-31T03:36:34.690Z,38.34
2022-10-31T03:37:33.498Z,38.11
2022-10-31T03:38:25.559Z,38.16
2022-10-31T03:39:17.769Z,38.03
2022-10-31T03:40:09.467Z,38.20
2022-10-31T03:41:02.295Z,38.16
2022-10-31T03:41:52.927Z,37.86
2022-10-31T03:42:50.622Z,38.10
2022-10-31T03:43:41.278Z,38.14
2022-10-31T03:44:31.228Z,38.11
2022-10-31T03:45:13.932Z,38.32
2022-10-31T03:46:05.899Z,38.27
2022-10-31T03:46:58.921Z,38.14
2022-10-31T03:47:58.709Z,38.02
2022-10-31T03:48:50.946Z,38.11
2022-10-31T03:49:44.196Z,38.00
2022-10-31T03:50:36.638Z,38.06
2022-10-31T03:51:31.708Z,38.02
2022-10-31T03:52:43.804Z,38.35
2022-10-31T03:53:56.835Z,37.97
2022-10-31T03:54:57.107Z,38.20
2022-10-31T03:55:57.944Z,38.37
2022-10-31T03:56:46.879Z,38.24
2022-10-31T03:57:40.485Z,38.21
2022-10-31T03:58:42.176Z,38.04
2022-10-31T03:59:32.793Z,38.10
2022-10-31T04:00:24.738Z,38.25
2022-10-31T04:01:18.477Z,38.07
2022-10-31T04:02:10.062Z,38.31
2022-10-31T04:03:05.407Z,38.05
2022-10-31T04:03:56.527Z,38.32
2022-10-31T04:04:47.275Z,38.09
2022-10-31T04:05:38.359Z,38.29
2022-10-31T04:06:29.975Z,38.17
2022-10-31T04:07:21.266Z,38.11
2022-10-31T04:08:19.963Z,38.00
2022-10-31T04:09:09.443Z,37.98
2022-10-31T04:09:59.191Z,38.00
2022-10-31T04:10:49.684Z,37.98
2022-10-31T04:11:39.971Z,38.17
2022-10-31T04:12:36.041Z,38.34
2022-10-31T04:13:25.830Z,38.09
2022-10-31T04:14:16.286Z,37.92
2022-10-31T04:15:09.909Z,38.26
2022-10-31T04:16:01.220Z,38.01
2022-10-31T04:16:57.807Z,38.02
2022-10-31T04:18:52.647Z,38.21
2022-10-31T04:19:45.286Z,38.05
2022-10-31T04:20:38.868Z,38.02
2022-10-31T04:21:31.177Z,38.08
2022-10-31T04:22:24.942Z,38.45
2022-10-31T04:23:25.481Z,38.10
2022-10-31T04:24:18.062Z,38.15
2022-10-31T04:25:11.510Z,38.12
2022-10-31T04:26:05.220Z,38.10
2022-10-31T04:26:58.768Z,37.90
2022-10-31T04:27:57.245Z,38.08
2022-10-31T04:28:52.854Z,37.91
2022-10-31T04:29:48.200Z,37.95
2022-10-31T04:30:41.933Z,37.92
2022-10-31T04:31:34.197Z,38.00
2022-10-31T04:32:26.423Z,38.00
2022-10-31T04:33:20.362Z,38.24
2022-10-31T04:34:17.267Z,37.96
2022-10-31T04:35:09.477Z,38.11
2022-10-31T04:36:02.072Z,38.10
2022-10-31T04:36:54.928Z,38.34
2022-10-31T04:37:48.216Z,38.21
2022-10-31T04:38:44.221Z,38.07
2022-10-31T04:39:37.276Z,37.89
2022-10-31T04:40:30.651Z,38.12
2022-10-31T04:41:23.043Z,38.20
2022-10-31T04:42:15.275Z,37.88
2022-10-31T04:43:08.947Z,38.24
2022-10-31T04:45:04.483Z,38.13
2022-10-31T04:45:57.292Z,38.00
2022-10-31T04:46:49.614Z,37.91
2022-10-31T04:47:43.824Z,37.96
2022-10-31T04:48:36.211Z,38.16
2022-10-31T04:49:30.945Z,37.86
2022-10-31T04:50:21.682Z,37.96
2022-10-31T04:51:12.657Z,37.86
2022-10-31T04:52:05.063Z,38.11
2022-10-31T04:53:00.429Z,37.97
2022-10-31T04:53:54.988Z,38.17
2022-10-31T04:54:51.635Z,38.04
2022-10-31T04:55:42.074Z,38.02
2022-10-31T04:56:33.689Z,37.95
2022-10-31T04:57:26.123Z,38.00
2022-10-31T04:58:18.669Z,38.24
2022-10-31T04:59:11.412Z,38.24
2022-10-31T05:01:02.858Z,38.14
2022-10-31T05:01:56.178Z,37.97
2022-10-31T05:02:47.984Z,38.02
2022-10-31T05:03:45.709Z,38.02
2022-10-31T05:04:39.373Z,38.19
2022-10-31T05:05:37.232Z,38.08
2022-10-31T05:06:31.308Z,38.03
2022-10-31T05:07:23.575Z,38.18
2022-10-31T05:08:17.381Z,38.16
2022-10-31T05:09:09.461Z,38.02
2022-10-31T05:10:01.835Z,38.10
2022-10-31T05:11:57.941Z,38.16
2022-10-31T05:12:50.607Z,37.81
2022-10-31T05:13:47.416Z,37.76
2022-10-31T05:14:38.362Z,37.94
2022-10-31T05:15:30.466Z,38.33
2022-10-31T05:16:19.392Z,38.16
2022-10-31T05:17:08.926Z,37.96
2022-10-31T05:18:00.181Z,37.97
2022-10-31T05:18:57.549Z,38.01
2022-10-31T05:19:49.547Z,37.97
2022-10-31T05:20:42.148Z,38.19
2022-10-31T05:21:33.306Z,38.17
2022-10-31T05:22:24.377Z,37.92
2022-10-31T05:23:16.353Z,38.03
2022-10-31T05:24:12.866Z,38.05
2022-10-31T05:25:03.566Z,38.01
2022-10-31T05:25:53.907Z,37.87
2022-10-31T05:26:45.970Z,37.92
2022-10-31T05:27:38.679Z,37.89
2022-10-31T05:28:29.993Z,37.71
2022-10-31T05:30:25.152Z,37.50
2022-10-31T05:31:17.127Z,37.97
2022-10-31T05:32:06.981Z,37.72
2022-10-31T05:32:56.884Z,37.68
2022-10-31T05:33:52.147Z,37.82
2022-10-31T05:34:47.109Z,37.82
2022-10-31T05:35:39.517Z,37.84
2022-10-31T05:36:33.721Z,37.73
2022-10-31T05:37:27.160Z,37.93
2022-10-31T05:38:19.824Z,37.77
2022-10-31T05:39:12.520Z,37.83
2022-10-31T05:40:08.583Z,37.77
2022-10-31T05:41:00.279Z,37.70
2022-10-31T05:41:52.716Z,37.87
2022-10-31T05:42:46.319Z,37.88
2022-10-31T05:43:42.253Z,37.78
2022-10-31T05:44:35.022Z,37.73
2022-10-31T05:45:24.296Z,37.74
2022-10-31T05:46:15.383Z,37.67
2022-10-31T05:47:09.485Z,37.74
2022-10-31T05:47:59.831Z,37.71
2022-10-31T05:48:57.522Z,37.76
2022-10-31T05:49:56.237Z,37.70
2022-10-31T05:50:50.889Z,37.70
2022-10-31T05:51:45.479Z,37.56
2022-10-31T05:52:37.770Z,37.82
2022-10-31T05:53:32.398Z,37.75
2022-10-31T05:54:24.888Z,37.72
2022-10-31T05:55:17.774Z,37.76
2022-10-31T05:56:11.440Z,37.99
2022-10-31T05:57:04.926Z,37.68
2022-10-31T05:57:57.978Z,37.78
2022-10-31T05:59:54.924Z,37.48
2022-10-31T06:00:47.711Z,37.81
2022-10-31T06:01:42.245Z,37.72
2022-10-31T06:02:35.663Z,37.68
2022-10-31T06:03:29.990Z,37.81
2022-10-31T06:04:22.307Z,37.81
2022-10-31T06:05:14.035Z,37.63
2022-10-31T06:06:07.227Z,37.85
2022-10-31T06:06:58.720Z,37.79
2022-10-31T06:07:53.212Z,37.58
2022-10-31T06:09:49.308Z,37.85
2022-10-31T06:10:41.203Z,37.79
2022-10-31T06:11:35.063Z,37.69
2022-10-31T06:12:27.663Z,37.75
2022-10-31T06:13:22.982Z,37.68
2022-10-31T06:14:15.040Z,37.70
2022-10-31T06:15:09.198Z,37.92
2022-10-31T06:16:02.447Z,37.88
2022-10-31T06:16:55.896Z,37.74
2022-10-31T06:17:49.343Z,37.86
2022-10-31T06:19:46.625Z,37.89
2022-10-31T06:20:38.952Z,37.59
2022-10-31T06:21:33.186Z,37.86
2022-10-31T06:22:25.917Z,37.81
2022-10-31T06:23:20.844Z,37.61
2022-10-31T06:24:13.668Z,37.84
2022-10-31T06:25:06.498Z,37.38
2022-10-31T06:25:57.784Z,37.50
2022-10-31T06:26:51.476Z,37.72
2022-10-31T06:27:46.436Z,37.60
2022-10-31T06:28:39.586Z,37.76
2022-10-31T06:29:32.183Z,37.48
2022-10-31T06:30:21.812Z,37.55
2022-10-31T06:31:12.204Z,37.59
2022-10-31T06:32:06.447Z,37.72
2022-10-31T06:33:03.378Z,37.66
2022-10-31T06:33:57.388Z,37.51
2022-10-31T06:34:47.146Z,37.60
2022-10-31T06:35:37.401Z,37.56
2022-10-31T06:37:18.369Z,37.67
2022-10-31T06:38:11.346Z,37.69
2022-10-31T06:39:00.716Z,37.51
2022-10-31T06:39:50.861Z,37.57
2022-10-31T06:40:40.699Z,37.73
2022-10-31T06:41:30.803Z,37.49
2022-10-31T06:42:21.644Z,37.58
2022-10-31T06:43:17.434Z,37.74
2022-10-31T06:44:09.866Z,37.81
2022-10-31T06:45:00.130Z,37.57
2022-10-31T06:45:50.622Z,37.54
2022-10-31T06:46:41.837Z,37.40
2022-10-31T06:47:32.409Z,37.70
2022-10-31T06:48:27.112Z,37.47
2022-10-31T06:49:17.223Z,37.57
2022-10-31T06:50:07.682Z,37.53
2022-10-31T06:51:02.003Z,37.52
2022-10-31T06:51:53.627Z,37.49
2022-10-31T06:52:44.150Z,37.63
2022-10-31T06:53:39.537Z,37.54
2022-10-31T06:54:29.061Z,37.46
2022-10-31T06:55:19.665Z,37.57
2022-10-31T06:56:08.460Z,37.39
2022-10-31T06:56:58.687Z,37.46
2022-10-31T06:57:49.442Z,37.50
2022-10-31T06:58:44.936Z,37.78
2022-10-31T06:59:37.964Z,37.63
2022-10-31T07:00:27.449Z,37.37
2022-10-31T07:01:16.420Z,37.38
2022-10-31T07:02:07.192Z,37.55
2022-10-31T07:02:56.686Z,37.68
2022-10-31T07:03:51.225Z,37.62
2022-10-31T07:04:41.382Z,37.51
2022-10-31T07:05:30.706Z,37.49
2022-10-31T07:06:19.980Z,37.33
2022-10-31T07:07:10.210Z,37.58
2022-10-31T07:08:01.007Z,37.37
2022-10-31T07:08:56.216Z,37.40
2022-10-31T07:09:46.145Z,37.71
2022-10-31T07:10:40.150Z,37.46
2022-10-31T07:11:28.001Z,37.70
2022-10-31T07:12:18.310Z,37.91
2022-10-31T07:13:12.321Z,37.45
2022-10-31T07:14:02.167Z,37.52
2022-10-31T07:14:52.120Z,37.43
2022-10-31T07:15:40.731Z,37.67
2022-10-31T07:16:29.828Z,37.57
2022-10-31T07:17:19.476Z,37.60
2022-10-31T07:18:18.782Z,37.24
2022-10-31T07:19:08.990Z,37.39
2022-10-31T07:19:59.553Z,37.42
2022-10-31T07:20:50.323Z,37.35
2022-10-31T07:21:40.543Z,37.37
2022-10-31T07:22:30.308Z,37.73
2022-10-31T07:23:25.916Z,37.64
2022-10-31T07:24:15.432Z,37.62
2022-10-31T07:25:05.254Z,37.61
2022-10-31T07:25:56.233Z,37.48
2022-10-31T07:26:45.862Z,37.52
2022-10-31T07:27:37.608Z,37.56
2022-10-31T07:28:34.824Z,37.46
2022-10-31T07:29:24.168Z,37.45
2022-10-31T07:31:02.149Z,37.70
2022-10-31T07:31:55.600Z,37.67
2022-10-31T07:32:53.688Z,37.76
2022-10-31T07:33:48.647Z,37.58
2022-10-31T07:34:36.930Z,37.62
2022-10-31T07:35:28.485Z,37.50
2022-10-31T07:36:20.458Z,37.66
2022-10-31T07:37:12.458Z,37.64
2022-10-31T07:38:04.904Z,37.80
2022-10-31T07:39:04.594Z,37.65
2022-10-31T07:39:57.710Z,37.54
2022-10-31T07:40:50.070Z,37.60
2022-10-31T07:41:43.589Z,37.49
2022-10-31T07:42:36.692Z,37.54
2022-10-31T07:43:33.112Z,37.65
2022-10-31T07:44:27.823Z,37.66
2022-10-31T07:45:19.094Z,37.69
2022-10-31T07:46:12.601Z,37.39
2022-10-31T07:47:06.272Z,37.43
2022-10-31T07:47:59.364Z,37.60
2022-10-31T07:48:51.742Z,37.69
2022-10-31T07:49:50.812Z,37.60
2022-10-31T07:50:43.267Z,37.64
2022-10-31T07:51:35.926Z,37.54
2022-10-31T07:52:27.708Z,37.75
2022-10-31T07:53:08.864Z,37.65
2022-10-31T07:53:58.149Z,37.54
2022-10-31T07:54:55.851Z,37.52
2022-10-31T07:55:48.092Z,37.73
2022-10-31T07:56:40.318Z,37.47
2022-10-31T07:57:34.445Z,37.46
2022-10-31T07:58:26.862Z,37.49
2022-10-31T07:59:17.559Z,37.82
2022-10-31T08:02:08.625Z,37.52
2022-10-31T08:02:58.795Z,37.64
2022-10-31T08:03:51.102Z,37.50
2022-10-31T08:04:44.888Z,37.68
2022-10-31T08:05:35.155Z,37.73
2022-10-31T08:06:26.210Z,37.67
2022-10-31T08:07:16.620Z,37.55
2022-10-31T08:08:08.622Z,37.79
2022-10-31T08:09:06.409Z,37.69
2022-10-31T08:09:57.886Z,37.53
2022-10-31T08:10:46.702Z,37.60
2022-10-31T08:11:35.645Z,37.77
2022-10-31T08:12:27.796Z,37.59
2022-10-31T08:13:18.768Z,37.61
2022-10-31T08:14:18.190Z,37.78
2022-10-31T08:15:10.266Z,37.74
2022-10-31T08:16:03.162Z,37.48
2022-10-31T08:16:55.418Z,37.57
2022-10-31T08:17:48.346Z,37.85
2022-10-31T08:18:45.918Z,37.61
2022-10-31T08:19:39.493Z,37.63
2022-10-31T08:20:33.958Z,37.69
2022-10-31T08:21:28.195Z,37.68
2022-10-31T08:22:21.544Z,37.98
2022-10-31T08:23:16.456Z,37.69
2022-10-31T08:25:13.239Z,37.82
2022-10-31T08:26:05.583Z,37.84
2022-10-31T08:26:59.395Z,38.00
2022-10-31T08:27:54.058Z,37.59
2022-10-31T08:28:51.170Z,37.61
2022-10-31T08:29:48.334Z,37.74
2022-10-31T08:31:37.727Z,37.79
2022-10-31T08:32:28.276Z,37.67
2022-10-31T08:33:19.266Z,37.67
2022-10-31T08:34:10.287Z,37.90
2022-10-31T08:35:00.143Z,37.75
2022-10-31T08:35:50.051Z,37.78
2022-10-31T08:36:39.124Z,37.78
2022-10-31T08:37:28.896Z,37.62
2022-10-31T08:38:28.579Z,37.84
2022-10-31T08:39:19.674Z,37.60
2022-10-31T08:40:08.340Z,37.76
2022-10-31T08:41:02.132Z,37.69
2022-10-31T08:41:55.181Z,37.71
2022-10-31T08:42:44.975Z,37.60
2022-10-31T08:43:44.050Z,37.73
2022-10-31T08:44:35.948Z,37.73
2022-10-31T08:45:29.551Z,37.97
2022-10-31T08:46:24.492Z,37.85
2022-10-31T08:47:14.817Z,38.01
2022-10-31T08:48:07.861Z,37.94
2022-10-31T08:49:03.785Z,37.79
2022-10-31T08:49:57.209Z,37.70
2022-10-31T08:50:50.929Z,37.78
2022-10-31T08:51:44.032Z,37.87
2022-10-31T08:52:59.234Z,37.70
2022-10-31T08:53:44.493Z,37.69
2022-10-31T08:54:43.476Z,37.79
2022-10-31T08:55:35.066Z,37.69
2022-10-31T08:56:28.576Z,37.82
2022-10-31T08:57:20.024Z,37.72
2022-10-31T08:58:14.334Z,37.82
2022-10-31T08:59:09.607Z,37.80
2022-10-31T09:00:03.029Z,37.68
2022-10-31T09:00:57.363Z,37.55
2022-10-31T09:01:51.142Z,38.12
2022-10-31T09:02:44.800Z,38.09
2022-10-31T09:03:35.858Z,38.45
2022-10-31T09:04:32.664Z,38.23
2022-10-31T09:05:24.099Z,38.34
2022-10-31T09:06:18.231Z,38.28
2022-10-31T09:07:26.345Z,38.09
2022-10-31T09:08:18.655Z,38.22
2022-10-31T09:09:08.986Z,38.16
2022-10-31T09:10:05.113Z,38.24
2022-10-31T09:10:56.718Z,38.21
2022-10-31T09:11:47.199Z,38.34
2022-10-31T09:12:37.789Z,38.23
2022-10-31T09:13:28.640Z,37.99
2022-10-31T09:14:21.883Z,38.18
2022-10-31T09:15:20.738Z,38.29
2022-10-31T09:16:13.566Z,37.88
2022-10-31T09:17:06.002Z,38.09
2022-10-31T09:17:58.741Z,38.10
2022-10-31T09:18:50.338Z,37.99
2022-10-31T09:19:45.657Z,38.18
2022-10-31T09:20:39.038Z,38.23
2022-10-31T09:21:32.286Z,38.28
2022-10-31T09:22:23.790Z,38.34
2022-10-31T09:23:20.104Z,38.28
2022-10-31T09:24:12.924Z,37.96
2022-10-31T09:25:10.796Z,37.91
2022-10-31T09:26:04.328Z,38.16
2022-10-31T09:26:56.769Z,38.00
2022-10-31T09:27:51.267Z,38.22
2022-10-31T09:28:48.433Z,38.18
2022-10-31T09:29:39.832Z,38.35
2022-10-31T09:30:36.187Z,38.03
2022-10-31T09:31:29.329Z,38.06
2022-10-31T09:32:21.986Z,38.04
2022-10-31T09:33:14.356Z,38.28
2022-10-31T09:34:08.415Z,38.32
2022-10-31T09:35:02.298Z,38.20
2022-10-31T09:35:59.679Z,38.12
2022-10-31T09:36:49.913Z,38.07
2022-10-31T09:37:41.870Z,38.22
2022-10-31T09:38:33.193Z,38.15
2022-10-31T09:39:24.275Z,38.13
2022-10-31T09:40:57.395Z,38.08
2022-10-31T09:42:08.978Z,38.20
2022-10-31T09:42:57.041Z,38.15
2022-10-31T09:43:59.465Z,38.24
2022-10-31T09:44:59.136Z,38.25
2022-10-31T09:45:52.590Z,38.20
2022-10-31T09:46:50.574Z,38.28
2022-10-31T09:47:47.094Z,38.29
2022-10-31T09:48:48.318Z,38.26
2022-10-31T09:49:31.556Z,37.98
2022-10-31T09:50:38.003Z,38.31
2022-10-31T09:51:30.652Z,38.14
2022-10-31T09:52:23.241Z,38.05
2022-10-31T09:53:14.191Z,38.36
2022-10-31T09:54:07.053Z,38.50
2022-10-31T09:55:01.362Z,38.15
2022-10-31T09:55:53.812Z,38.20
2022-10-31T09:56:43.419Z,38.12
2022-10-31T09:57:35.960Z,38.32
2022-10-31T09:58:38.156Z,38.30
2022-10-31T09:59:30.407Z,38.11
2022-10-31T10:00:20.728Z,38.28
2022-10-31T10:01:11.711Z,38.25
2022-10-31T10:02:12.020Z,38.27
2022-10-31T10:03:02.817Z,38.28
2022-10-31T10:03:59.152Z,38.09
2022-10-31T10:04:49.923Z,38.19
2022-10-31T10:05:46.244Z,38.33
2022-10-31T10:06:36.322Z,38.15
2022-10-31T10:07:39.644Z,38.23
2022-10-31T10:08:39.276Z,38.13
2022-10-31T10:09:32.388Z,38.14
2022-10-31T10:10:21.069Z,38.30
2022-10-31T10:11:25.966Z,38.13
2022-10-31T10:12:11.417Z,37.99
2022-10-31T10:12:56.523Z,38.09
2022-10-31T10:14:04.161Z,38.03
2022-10-31T10:14:46.516Z,38.16
2022-10-31T10:15:38.245Z,38.29
2022-10-31T10:16:33.475Z,38.19
2022-10-31T10:17:27.867Z,38.38
2022-10-31T10:18:12.222Z,38.28
2022-10-31T10:19:03.589Z,38.37
2022-10-31T10:20:11.656Z,38.27
2022-10-31T10:20:54.039Z,38.17
2022-10-31T10:21:35.830Z,38.13
2022-10-31T10:22:19.834Z,38.15
2022-10-31T10:23:20.363Z,38.39
2022-10-31T10:24:12.446Z,38.15
2022-10-31T10:25:13.948Z,38.01
2022-10-31T10:26:10.221Z,38.24
2022-10-31T10:27:06.606Z,38.29
2022-10-31T10:27:50.922Z,38.48
2022-10-31T10:28:41.724Z,38.40
2022-10-31T10:29:43.543Z,38.34
2022-10-31T10:30:34.098Z,38.17
2022-10-31T10:31:25.714Z,38.26
2022-10-31T10:32:19.840Z,38.15
2022-10-31T10:33:24.605Z,38.36
2022-10-31T10:34:24.761Z,38.42
2022-10-31T10:35:19.206Z,38.11
2022-10-31T10:36:10.863Z,38.36
2022-10-31T10:37:02.324Z,38.19
2022-10-31T10:37:53.020Z,38.27
2022-10-31T10:38:34.380Z,38.20
2022-10-31T10:39:26.832Z,38.40
2022-10-31T10:40:37.570Z,38.26
2022-10-31T10:41:34.323Z,38.39
2022-10-31T10:42:24.777Z,38.08
2022-10-31T10:43:10.297Z,38.32
2022-10-31T10:44:00.975Z,38.12
2022-10-31T10:45:00.988Z,38.10
2022-10-31T10:45:53.538Z,38.39
2022-10-31T10:46:57.553Z,38.21
2022-10-31T10:47:49.548Z,38.26
2022-10-31T10:48:46.331Z,38.36
2022-10-31T10:49:31.647Z,38.39
2022-10-31T10:50:34.086Z,38.17
2022-10-31T10:52:07.063Z,38.34
2022-10-31T10:52:51.252Z,38.35
2022-10-31T10:53:50.909Z,38.42
2022-10-31T10:54:51.996Z,38.36
2022-10-31T10:55:52.284Z,38.52
2022-10-31T10:56:55.525Z,38.30
2022-10-31T10:57:51.002Z,38.39
2022-10-31T10:58:43.719Z,38.15
2022-10-31T10:59:34.880Z,38.39
2022-10-31T11:00:23.210Z,38.34
2022-10-31T11:01:20.833Z,38.25
2022-10-31T11:02:14.270Z,38.42
2022-10-31T11:03:06.964Z,38.31
2022-10-31T11:04:00.170Z,38.21
2022-10-31T11:04:51.920Z,38.29
2022-10-31T11:05:40.833Z,38.28
2022-10-31T11:07:35.733Z,38.17
2022-10-31T11:08:41.690Z,38.20
2022-10-31T11:09:37.844Z,38.55
2022-10-31T11:10:29.245Z,38.48
2022-10-31T11:11:22.383Z,38.32
2022-10-31T11:12:15.009Z,38.50
2022-10-31T11:13:08.198Z,38.36
2022-10-31T11:13:59.807Z,38.35
2022-10-31T11:14:53.327Z,38.49
2022-10-31T11:15:44.699Z,38.44
2022-10-31T11:16:42.458Z,38.28
2022-10-31T11:17:34.999Z,38.64
2022-10-31T11:18:32.788Z,38.58
2022-10-31T11:19:30.036Z,38.62
2022-10-31T11:20:19.373Z,38.55
2022-10-31T11:21:09.239Z,38.71
2022-10-31T11:22:07.167Z,38.41
2022-10-31T11:22:57.454Z,38.41
2022-10-31T11:23:50.398Z,38.37
2022-10-31T11:24:49.149Z,38.67
2022-10-31T11:25:39.403Z,38.47
2022-10-31T11:26:31.903Z,38.62
2022-10-31T11:27:29.549Z,38.46
2022-10-31T11:28:21.108Z,38.38
2022-10-31T11:29:16.071Z,38.69
2022-10-31T11:30:06.069Z,38.36
2022-10-31T11:31:02.491Z,38.54
2022-10-31T11:31:53.632Z,38.47
2022-10-31T11:32:45.640Z,38.44
2022-10-31T11:33:38.292Z,38.45
2022-10-31T11:34:41.574Z,38.50
2022-10-31T11:35:32.015Z,38.50
2022-10-31T11:36:35.596Z,38.41
2022-10-31T11:37:28.014Z,38.53
2022-10-31T11:38:20.814Z,38.69
2022-10-31T11:39:13.367Z,38.58
2022-10-31T11:40:11.500Z,38.75
2022-10-31T11:41:08.105Z,38.60
2022-10-31T11:42:04.904Z,38.50
2022-10-31T11:42:59.725Z,38.43
2022-10-31T11:43:53.570Z,38.53
2022-10-31T11:44:50.071Z,38.46
2022-10-31T11:45:42.750Z,38.68
2022-10-31T11:46:32.092Z,38.63
2022-10-31T11:47:22.296Z,38.86
2022-10-31T11:48:17.724Z,38.80
2022-10-31T11:49:10.640Z,38.63
2022-10-31T11:51:06.343Z,38.67